sensor_id;sensor_type;location;lat;lon;timestamp;P1;durP1;ratioP1;P2;durP2;ratioP2
58414;SDS011;44210;42.706;18.344;2023-11-19T00:01:23;2.25;;;1.48;;
58414;SDS011;44210;42.706;18.344;2023-11-19T00:03:49;2.30;;;1.75;;
58414;SDS011;44210;42.706;18.344;2023-11-19T00:06:15;3.92;;;1.40;;
58414;SDS011;44210;42.706;18.344;2023-11-19T00:08:42;2.55;;;1.77;;
58414;SDS011;44210;42.706;18.344;2023-11-19T00:11:11;4.10;;;2.20;;
58414;SDS011;44210;42.706;18.344;2023-11-19T00:13:40;3.33;;;2.00;;
58414;SDS011;44210;42.706;18.344;2023-11-19T00:16:06;2.05;;;1.60;;
58414;SDS011;44210;42.706;18.344;2023-11-19T00:18:34;3.13;;;1.73;;
58414;SDS011;44210;42.706;18.344;2023-11-19T00:21:01;1.88;;;1.30;;
58414;SDS011;44210;42.706;18.344;2023-11-19T00:23:27;2.60;;;1.38;;
58414;SDS011;44210;42.706;18.344;2023-11-19T00:25:53;2.15;;;1.65;;
58414;SDS011;44210;42.706;18.344;2023-11-19T00:28:19;3.10;;;1.48;;
58414;SDS011;44210;42.706;18.344;2023-11-19T00:30:45;2.25;;;1.40;;
58414;SDS011;44210;42.706;18.344;2023-11-19T00:33:11;2.63;;;1.33;;
58414;SDS011;44210;42.706;18.344;2023-11-19T00:35:37;1.80;;;1.08;;
58414;SDS011;44210;42.706;18.344;2023-11-19T00:38:04;3.47;;;2.08;;
58414;SDS011;44210;42.706;18.344;2023-11-19T00:40:30;4.00;;;1.65;;
58414;SDS011;44210;42.706;18.344;2023-11-19T00:42:56;2.08;;;1.33;;
58414;SDS011;44210;42.706;18.344;2023-11-19T00:45:22;1.67;;;1.10;;
58414;SDS011;44210;42.706;18.344;2023-11-19T00:47:48;3.90;;;1.25;;
58414;SDS011;44210;42.706;18.344;2023-11-19T00:50:14;2.35;;;1.30;;
58414;SDS011;44210;42.706;18.344;2023-11-19T00:52:40;1.75;;;1.10;;
58414;SDS011;44210;42.706;18.344;2023-11-19T00:55:07;1.35;;;1.17;;
58414;SDS011;44210;42.706;18.344;2023-11-19T00:57:33;1.55;;;1.17;;
58414;SDS011;44210;42.706;18.344;2023-11-19T01:00:00;1.42;;;0.95;;
58414;SDS011;44210;42.706;18.344;2023-11-19T01:02:28;1.65;;;1.05;;
58414;SDS011;44210;42.706;18.344;2023-11-19T01:04:54;1.10;;;0.95;;
58414;SDS011;44210;42.706;18.344;2023-11-19T01:07:21;2.50;;;1.10;;
58414;SDS011;44210;42.706;18.344;2023-11-19T01:09:47;1.10;;;0.95;;
58414;SDS011;44210;42.706;18.344;2023-11-19T01:12:13;2.28;;;1.25;;
58414;SDS011;44210;42.706;18.344;2023-11-19T01:14:39;1.20;;;1.02;;
58414;SDS011;44210;42.706;18.344;2023-11-19T01:17:05;3.95;;;1.10;;
58414;SDS011;44210;42.706;18.344;2023-11-19T01:19:31;1.88;;;1.25;;
58414;SDS011;44210;42.706;18.344;2023-11-19T01:21:57;1.42;;;1.08;;
58414;SDS011;44210;42.706;18.344;2023-11-19T01:24:23;4.80;;;1.23;;
58414;SDS011;44210;42.706;18.344;2023-11-19T01:26:50;1.25;;;1.10;;
58414;SDS011;44210;42.706;18.344;2023-11-19T01:29:16;1.75;;;1.02;;
58414;SDS011;44210;42.706;18.344;2023-11-19T01:31:43;1.10;;;0.98;;
58414;SDS011;44210;42.706;18.344;2023-11-19T01:34:09;1.80;;;0.80;;
58414;SDS011;44210;42.706;18.344;2023-11-19T01:36:36;6.53;;;1.42;;
58414;SDS011;44210;42.706;18.344;2023-11-19T01:39:03;1.58;;;1.02;;
58414;SDS011;44210;42.706;18.344;2023-11-19T01:41:33;1.15;;;0.80;;
58414;SDS011;44210;42.706;18.344;2023-11-19T01:44:00;1.50;;;1.10;;
58414;SDS011;44210;42.706;18.344;2023-11-19T01:46:26;3.25;;;1.20;;
58414;SDS011;44210;42.706;18.344;2023-11-19T01:48:52;1.67;;;0.90;;
58414;SDS011;44210;42.706;18.344;2023-11-19T01:51:19;2.72;;;1.40;;
58414;SDS011;44210;42.706;18.344;2023-11-19T01:53:45;1.70;;;1.08;;
58414;SDS011;44210;42.706;18.344;2023-11-19T01:56:11;2.58;;;1.20;;
58414;SDS011;44210;42.706;18.344;2023-11-19T01:58:39;1.60;;;1.00;;
58414;SDS011;44210;42.706;18.344;2023-11-19T02:01:06;2.85;;;0.95;;
58414;SDS011;44210;42.706;18.344;2023-11-19T02:03:32;1.35;;;0.85;;
58414;SDS011;44210;42.706;18.344;2023-11-19T02:05:59;1.08;;;0.85;;
58414;SDS011;44210;42.706;18.344;2023-11-19T02:08:26;2.75;;;0.70;;
58414;SDS011;44210;42.706;18.344;2023-11-19T02:10:52;6.53;;;0.88;;
58414;SDS011;44210;42.706;18.344;2023-11-19T02:13:21;1.77;;;1.20;;
58414;SDS011;44210;42.706;18.344;2023-11-19T02:15:48;1.58;;;1.20;;
58414;SDS011;44210;42.706;18.344;2023-11-19T02:18:17;1.83;;;1.00;;
58414;SDS011;44210;42.706;18.344;2023-11-19T02:20:44;2.95;;;0.80;;
58414;SDS011;44210;42.706;18.344;2023-11-19T02:23:11;1.77;;;1.23;;
58414;SDS011;44210;42.706;18.344;2023-11-19T02:25:37;4.93;;;1.10;;
58414;SDS011;44210;42.706;18.344;2023-11-19T02:28:04;2.20;;;1.00;;
58414;SDS011;44210;42.706;18.344;2023-11-19T02:30:30;0.80;;;0.80;;
58414;SDS011;44210;42.706;18.344;2023-11-19T02:32:57;2.00;;;0.98;;
58414;SDS011;44210;42.706;18.344;2023-11-19T02:35:27;2.05;;;1.13;;
58414;SDS011;44210;42.706;18.344;2023-11-19T02:37:56;2.10;;;0.90;;
58414;SDS011;44210;42.706;18.344;2023-11-19T02:40:24;1.25;;;0.80;;
58414;SDS011;44210;42.706;18.344;2023-11-19T02:42:50;4.25;;;1.10;;
58414;SDS011;44210;42.706;18.344;2023-11-19T02:45:16;2.30;;;1.35;;
58414;SDS011;44210;42.706;18.344;2023-11-19T02:47:43;3.83;;;1.60;;
58414;SDS011;44210;42.706;18.344;2023-11-19T02:50:10;0.95;;;0.93;;
58414;SDS011;44210;42.706;18.344;2023-11-19T02:52:42;2.63;;;1.05;;
58414;SDS011;44210;42.706;18.344;2023-11-19T02:55:12;5.03;;;1.20;;
58414;SDS011;44210;42.706;18.344;2023-11-19T02:57:39;1.98;;;1.20;;
58414;SDS011;44210;42.706;18.344;2023-11-19T03:00:21;1.75;;;1.00;;
58414;SDS011;44210;42.706;18.344;2023-11-19T03:02:57;3.03;;;1.00;;
58414;SDS011;44210;42.706;18.344;2023-11-19T03:05:24;2.70;;;0.90;;
58414;SDS011;44210;42.706;18.344;2023-11-19T03:07:51;3.80;;;1.00;;
58414;SDS011;44210;42.706;18.344;2023-11-19T03:10:17;4.95;;;1.00;;
58414;SDS011;44210;42.706;18.344;2023-11-19T03:12:44;2.30;;;1.00;;
58414;SDS011;44210;42.706;18.344;2023-11-19T03:15:13;2.13;;;1.10;;
58414;SDS011;44210;42.706;18.344;2023-11-19T03:17:39;1.85;;;1.00;;
58414;SDS011;44210;42.706;18.344;2023-11-19T03:20:06;1.40;;;0.85;;
58414;SDS011;44210;42.706;18.344;2023-11-19T03:22:35;1.42;;;0.90;;
58414;SDS011;44210;42.706;18.344;2023-11-19T03:25:02;3.80;;;1.23;;
58414;SDS011;44210;42.706;18.344;2023-11-19T03:27:29;0.98;;;0.80;;
58414;SDS011;44210;42.706;18.344;2023-11-19T03:29:55;1.70;;;0.90;;
58414;SDS011;44210;42.706;18.344;2023-11-19T03:32:21;2.80;;;0.93;;
58414;SDS011;44210;42.706;18.344;2023-11-19T03:34:47;2.00;;;1.08;;
58414;SDS011;44210;42.706;18.344;2023-11-19T03:37:13;1.20;;;0.82;;
58414;SDS011;44210;42.706;18.344;2023-11-19T03:39:42;1.65;;;0.77;;
58414;SDS011;44210;42.706;18.344;2023-11-19T03:42:08;0.70;;;0.70;;
58414;SDS011;44210;42.706;18.344;2023-11-19T03:44:34;3.83;;;1.23;;
58414;SDS011;44210;42.706;18.344;2023-11-19T03:47:00;0.80;;;0.80;;
58414;SDS011;44210;42.706;18.344;2023-11-19T03:49:27;1.35;;;1.10;;
58414;SDS011;44210;42.706;18.344;2023-11-19T03:51:53;1.95;;;1.00;;
58414;SDS011;44210;42.706;18.344;2023-11-19T03:54:19;1.30;;;0.93;;
58414;SDS011;44210;42.706;18.344;2023-11-19T03:56:48;3.83;;;1.10;;
58414;SDS011;44210;42.706;18.344;2023-11-19T03:59:14;1.00;;;0.90;;
58414;SDS011;44210;42.706;18.344;2023-11-19T04:01:40;1.80;;;0.80;;
58414;SDS011;44210;42.706;18.344;2023-11-19T04:04:06;1.33;;;0.90;;
58414;SDS011;44210;42.706;18.344;2023-11-19T04:06:32;1.02;;;0.90;;
58414;SDS011;44210;42.706;18.344;2023-11-19T04:08:59;1.50;;;0.85;;
58414;SDS011;44210;42.706;18.344;2023-11-19T04:11:25;1.27;;;0.90;;
58414;SDS011;44210;42.706;18.344;2023-11-19T04:13:51;1.23;;;0.80;;
58414;SDS011;44210;42.706;18.344;2023-11-19T04:16:17;0.73;;;0.73;;
58414;SDS011;44210;42.706;18.344;2023-11-19T04:18:43;0.70;;;0.70;;
58414;SDS011;44210;42.706;18.344;2023-11-19T04:21:09;0.73;;;0.70;;
58414;SDS011;44210;42.706;18.344;2023-11-19T04:23:36;0.80;;;0.60;;
58414;SDS011;44210;42.706;18.344;2023-11-19T04:26:02;3.35;;;1.73;;
58414;SDS011;44210;42.706;18.344;2023-11-19T04:28:29;1.48;;;0.90;;
58414;SDS011;44210;42.706;18.344;2023-11-19T04:30:55;1.10;;;0.98;;
58414;SDS011;44210;42.706;18.344;2023-11-19T04:33:21;1.85;;;1.30;;
58414;SDS011;44210;42.706;18.344;2023-11-19T04:35:48;2.50;;;1.20;;
58414;SDS011;44210;42.706;18.344;2023-11-19T04:38:14;4.05;;;1.02;;
58414;SDS011;44210;42.706;18.344;2023-11-19T04:40:40;1.38;;;1.15;;
58414;SDS011;44210;42.706;18.344;2023-11-19T04:43:07;0.98;;;0.93;;
58414;SDS011;44210;42.706;18.344;2023-11-19T04:45:33;1.17;;;0.95;;
58414;SDS011;44210;42.706;18.344;2023-11-19T04:47:59;1.48;;;1.02;;
58414;SDS011;44210;42.706;18.344;2023-11-19T04:50:25;1.25;;;1.00;;
58414;SDS011;44210;42.706;18.344;2023-11-19T04:52:52;2.65;;;1.23;;
58414;SDS011;44210;42.706;18.344;2023-11-19T04:55:19;1.17;;;0.93;;
58414;SDS011;44210;42.706;18.344;2023-11-19T04:57:45;1.42;;;1.05;;
58414;SDS011;44210;42.706;18.344;2023-11-19T05:00:11;1.60;;;1.15;;
58414;SDS011;44210;42.706;18.344;2023-11-19T05:02:37;3.58;;;1.23;;
58414;SDS011;44210;42.706;18.344;2023-11-19T05:05:03;1.30;;;0.80;;
58414;SDS011;44210;42.706;18.344;2023-11-19T05:07:30;2.17;;;1.13;;
58414;SDS011;44210;42.706;18.344;2023-11-19T05:09:56;1.20;;;0.80;;
58414;SDS011;44210;42.706;18.344;2023-11-19T05:12:22;1.75;;;0.75;;
58414;SDS011;44210;42.706;18.344;2023-11-19T05:14:48;1.70;;;0.70;;
58414;SDS011;44210;42.706;18.344;2023-11-19T05:17:18;1.98;;;0.80;;
58414;SDS011;44210;42.706;18.344;2023-11-19T05:19:45;1.85;;;1.02;;
58414;SDS011;44210;42.706;18.344;2023-11-19T05:22:11;2.17;;;1.48;;
58414;SDS011;44210;42.706;18.344;2023-11-19T05:24:38;1.00;;;0.80;;
58414;SDS011;44210;42.706;18.344;2023-11-19T05:27:04;0.93;;;0.70;;
58414;SDS011;44210;42.706;18.344;2023-11-19T05:29:32;1.48;;;0.90;;
58414;SDS011;44210;42.706;18.344;2023-11-19T05:31:58;1.90;;;1.10;;
58414;SDS011;44210;42.706;18.344;2023-11-19T05:34:24;1.00;;;0.90;;
58414;SDS011;44210;42.706;18.344;2023-11-19T05:36:50;2.33;;;1.08;;
58414;SDS011;44210;42.706;18.344;2023-11-19T05:39:16;1.83;;;1.00;;
58414;SDS011;44210;42.706;18.344;2023-11-19T05:41:46;1.50;;;0.95;;
58414;SDS011;44210;42.706;18.344;2023-11-19T05:44:12;2.17;;;0.80;;
58414;SDS011;44210;42.706;18.344;2023-11-19T05:46:38;1.55;;;0.90;;
58414;SDS011;44210;42.706;18.344;2023-11-19T05:49:07;1.35;;;1.20;;
58414;SDS011;44210;42.706;18.344;2023-11-19T05:51:36;1.27;;;0.90;;
58414;SDS011;44210;42.706;18.344;2023-11-19T05:54:03;1.40;;;0.90;;
58414;SDS011;44210;42.706;18.344;2023-11-19T05:56:30;1.05;;;0.90;;
58414;SDS011;44210;42.706;18.344;2023-11-19T05:58:57;1.30;;;1.00;;
58414;SDS011;44210;42.706;18.344;2023-11-19T06:01:26;0.95;;;0.82;;
58414;SDS011;44210;42.706;18.344;2023-11-19T06:03:52;1.33;;;0.98;;
58414;SDS011;44210;42.706;18.344;2023-11-19T06:06:18;1.58;;;1.17;;
58414;SDS011;44210;42.706;18.344;2023-11-19T06:08:44;1.38;;;1.10;;
58414;SDS011;44210;42.706;18.344;2023-11-19T06:11:10;2.00;;;1.23;;
58414;SDS011;44210;42.706;18.344;2023-11-19T06:13:43;1.30;;;1.17;;
58414;SDS011;44210;42.706;18.344;2023-11-19T06:16:09;2.15;;;1.65;;
58414;SDS011;44210;42.706;18.344;2023-11-19T06:18:38;1.30;;;1.20;;
58414;SDS011;44210;42.706;18.344;2023-11-19T06:21:06;2.67;;;1.70;;
58414;SDS011;44210;42.706;18.344;2023-11-19T06:23:32;3.05;;;2.50;;
58414;SDS011;44210;42.706;18.344;2023-11-19T06:25:58;2.53;;;1.42;;
58414;SDS011;44210;42.706;18.344;2023-11-19T06:28:24;1.48;;;0.95;;
58414;SDS011;44210;42.706;18.344;2023-11-19T06:30:51;2.45;;;1.52;;
58414;SDS011;44210;42.706;18.344;2023-11-19T06:33:17;2.47;;;1.70;;
58414;SDS011;44210;42.706;18.344;2023-11-19T06:35:43;2.17;;;1.40;;
58414;SDS011;44210;42.706;18.344;2023-11-19T06:38:10;1.58;;;1.20;;
58414;SDS011;44210;42.706;18.344;2023-11-19T06:40:36;1.13;;;1.02;;
58414;SDS011;44210;42.706;18.344;2023-11-19T06:43:03;2.03;;;1.05;;
58414;SDS011;44210;42.706;18.344;2023-11-19T06:45:29;1.50;;;1.30;;
58414;SDS011;44210;42.706;18.344;2023-11-19T06:47:55;2.17;;;1.40;;
58414;SDS011;44210;42.706;18.344;2023-11-19T06:50:21;3.17;;;1.23;;
58414;SDS011;44210;42.706;18.344;2023-11-19T06:52:49;1.65;;;1.55;;
58414;SDS011;44210;42.706;18.344;2023-11-19T06:55:15;2.55;;;1.60;;
58414;SDS011;44210;42.706;18.344;2023-11-19T06:57:41;3.75;;;1.52;;
58414;SDS011;44210;42.706;18.344;2023-11-19T07:00:07;4.20;;;2.50;;
58414;SDS011;44210;42.706;18.344;2023-11-19T07:02:34;5.80;;;2.58;;
58414;SDS011;44210;42.706;18.344;2023-11-19T07:05:01;3.63;;;1.73;;
58414;SDS011;44210;42.706;18.344;2023-11-19T07:07:30;2.60;;;2.03;;
58414;SDS011;44210;42.706;18.344;2023-11-19T07:09:56;2.25;;;1.38;;
58414;SDS011;44210;42.706;18.344;2023-11-19T07:12:22;2.10;;;1.52;;
58414;SDS011;44210;42.706;18.344;2023-11-19T07:14:49;2.72;;;1.60;;
58414;SDS011;44210;42.706;18.344;2023-11-19T07:17:15;2.28;;;1.30;;
58414;SDS011;44210;42.706;18.344;2023-11-19T07:19:42;2.58;;;1.73;;
58414;SDS011;44210;42.706;18.344;2023-11-19T07:22:08;2.70;;;2.05;;
58414;SDS011;44210;42.706;18.344;2023-11-19T07:24:38;2.35;;;1.60;;
58414;SDS011;44210;42.706;18.344;2023-11-19T07:27:04;4.93;;;1.98;;
58414;SDS011;44210;42.706;18.344;2023-11-19T07:29:31;3.67;;;2.50;;
58414;SDS011;44210;42.706;18.344;2023-11-19T07:31:57;3.45;;;2.08;;
58414;SDS011;44210;42.706;18.344;2023-11-19T07:34:24;2.88;;;2.05;;
58414;SDS011;44210;42.706;18.344;2023-11-19T07:36:50;2.65;;;2.03;;
58414;SDS011;44210;42.706;18.344;2023-11-19T07:39:17;4.03;;;2.47;;
58414;SDS011;44210;42.706;18.344;2023-11-19T07:41:43;2.95;;;1.60;;
58414;SDS011;44210;42.706;18.344;2023-11-19T07:44:09;3.90;;;2.08;;
58414;SDS011;44210;42.706;18.344;2023-11-19T07:46:36;4.07;;;1.83;;
58414;SDS011;44210;42.706;18.344;2023-11-19T07:49:02;3.50;;;1.65;;
58414;SDS011;44210;42.706;18.344;2023-11-19T07:51:28;5.95;;;2.70;;
58414;SDS011;44210;42.706;18.344;2023-11-19T07:53:54;3.83;;;2.05;;
58414;SDS011;44210;42.706;18.344;2023-11-19T07:56:20;3.60;;;1.77;;
58414;SDS011;44210;42.706;18.344;2023-11-19T07:58:47;3.33;;;2.05;;
58414;SDS011;44210;42.706;18.344;2023-11-19T08:01:15;3.90;;;1.90;;
58414;SDS011;44210;42.706;18.344;2023-11-19T08:03:41;3.88;;;2.00;;
58414;SDS011;44210;42.706;18.344;2023-11-19T08:06:07;3.80;;;1.63;;
58414;SDS011;44210;42.706;18.344;2023-11-19T08:08:33;2.97;;;1.65;;
58414;SDS011;44210;42.706;18.344;2023-11-19T08:11:00;4.05;;;1.77;;
58414;SDS011;44210;42.706;18.344;2023-11-19T08:13:26;4.97;;;2.70;;
58414;SDS011;44210;42.706;18.344;2023-11-19T08:15:52;4.68;;;2.30;;
58414;SDS011;44210;42.706;18.344;2023-11-19T08:18:18;3.08;;;1.60;;
58414;SDS011;44210;42.706;18.344;2023-11-19T08:20:44;5.20;;;2.47;;
58414;SDS011;44210;42.706;18.344;2023-11-19T08:23:12;3.92;;;2.20;;
58414;SDS011;44210;42.706;18.344;2023-11-19T08:25:38;3.50;;;2.03;;
58414;SDS011;44210;42.706;18.344;2023-11-19T08:28:04;2.63;;;1.50;;
58414;SDS011;44210;42.706;18.344;2023-11-19T08:30:30;2.28;;;1.40;;
58414;SDS011;44210;42.706;18.344;2023-11-19T08:32:56;3.65;;;1.77;;
58414;SDS011;44210;42.706;18.344;2023-11-19T08:35:23;2.90;;;1.40;;
58414;SDS011;44210;42.706;18.344;2023-11-19T08:37:50;2.72;;;1.95;;
58414;SDS011;44210;42.706;18.344;2023-11-19T08:40:17;3.85;;;1.88;;
58414;SDS011;44210;42.706;18.344;2023-11-19T08:42:43;2.42;;;1.38;;
58414;SDS011;44210;42.706;18.344;2023-11-19T08:45:09;3.90;;;2.42;;
58414;SDS011;44210;42.706;18.344;2023-11-19T08:47:36;4.47;;;1.50;;
58414;SDS011;44210;42.706;18.344;2023-11-19T08:50:03;1.88;;;1.23;;
58414;SDS011;44210;42.706;18.344;2023-11-19T08:52:29;2.28;;;1.30;;
58414;SDS011;44210;42.706;18.344;2023-11-19T08:54:55;4.30;;;1.55;;
58414;SDS011;44210;42.706;18.344;2023-11-19T08:57:22;2.65;;;1.77;;
58414;SDS011;44210;42.706;18.344;2023-11-19T08:59:48;1.90;;;1.40;;
58414;SDS011;44210;42.706;18.344;2023-11-19T09:02:14;3.42;;;1.17;;
58414;SDS011;44210;42.706;18.344;2023-11-19T09:04:41;4.63;;;2.25;;
58414;SDS011;44210;42.706;18.344;2023-11-19T09:07:07;3.95;;;1.50;;
58414;SDS011;44210;42.706;18.344;2023-11-19T09:09:37;3.42;;;1.20;;
58414;SDS011;44210;42.706;18.344;2023-11-19T09:12:03;2.25;;;1.50;;
58414;SDS011;44210;42.706;18.344;2023-11-19T09:14:30;2.03;;;1.48;;
58414;SDS011;44210;42.706;18.344;2023-11-19T09:16:56;1.80;;;1.15;;
58414;SDS011;44210;42.706;18.344;2023-11-19T09:19:23;1.40;;;1.25;;
58414;SDS011;44210;42.706;18.344;2023-11-19T09:21:49;2.00;;;1.35;;
58414;SDS011;44210;42.706;18.344;2023-11-19T09:24:16;6.85;;;1.70;;
58414;SDS011;44210;42.706;18.344;2023-11-19T09:26:42;2.60;;;1.70;;
58414;SDS011;44210;42.706;18.344;2023-11-19T09:29:08;2.72;;;1.67;;
58414;SDS011;44210;42.706;18.344;2023-11-19T09:31:34;2.95;;;2.03;;
58414;SDS011;44210;42.706;18.344;2023-11-19T09:34:00;5.50;;;2.40;;
58414;SDS011;44210;42.706;18.344;2023-11-19T09:36:27;2.03;;;1.52;;
58414;SDS011;44210;42.706;18.344;2023-11-19T09:38:53;2.90;;;1.52;;
58414;SDS011;44210;42.706;18.344;2023-11-19T09:41:19;2.75;;;1.80;;
58414;SDS011;44210;42.706;18.344;2023-11-19T09:43:45;2.25;;;1.85;;
58414;SDS011;44210;42.706;18.344;2023-11-19T09:46:12;3.38;;;1.83;;
58414;SDS011;44210;42.706;18.344;2023-11-19T09:48:39;2.95;;;1.70;;
58414;SDS011;44210;42.706;18.344;2023-11-19T09:51:05;2.80;;;1.58;;
58414;SDS011;44210;42.706;18.344;2023-11-19T09:53:32;4.78;;;3.40;;
58414;SDS011;44210;42.706;18.344;2023-11-19T09:56:02;2.92;;;1.63;;
58414;SDS011;44210;42.706;18.344;2023-11-19T09:58:29;2.95;;;1.25;;
58414;SDS011;44210;42.706;18.344;2023-11-19T10:00:58;2.22;;;1.23;;
58414;SDS011;44210;42.706;18.344;2023-11-19T10:03:26;1.50;;;0.80;;
58414;SDS011;44210;42.706;18.344;2023-11-19T10:05:53;3.92;;;1.35;;
58414;SDS011;44210;42.706;18.344;2023-11-19T10:08:21;2.17;;;1.48;;
58414;SDS011;44210;42.706;18.344;2023-11-19T10:10:49;2.20;;;1.38;;
58414;SDS011;44210;42.706;18.344;2023-11-19T10:13:15;2.90;;;1.35;;
58414;SDS011;44210;42.706;18.344;2023-11-19T10:15:41;3.75;;;1.60;;
58414;SDS011;44210;42.706;18.344;2023-11-19T10:18:09;1.83;;;1.60;;
58414;SDS011;44210;42.706;18.344;2023-11-19T10:20:41;2.80;;;1.90;;
58414;SDS011;44210;42.706;18.344;2023-11-19T10:23:08;3.10;;;2.03;;
58414;SDS011;44210;42.706;18.344;2023-11-19T10:25:34;3.47;;;2.55;;
58414;SDS011;44210;42.706;18.344;2023-11-19T10:28:00;3.05;;;2.30;;
58414;SDS011;44210;42.706;18.344;2023-11-19T10:30:27;3.33;;;2.17;;
58414;SDS011;44210;42.706;18.344;2023-11-19T10:35:31;2.35;;;1.40;;
58414;SDS011;44210;42.706;18.344;2023-11-19T10:37:58;1.10;;;1.00;;
58414;SDS011;44210;42.706;18.344;2023-11-19T10:40:31;2.28;;;1.65;;
58414;SDS011;44210;42.706;18.344;2023-11-19T10:43:04;4.10;;;2.25;;
58414;SDS011;44210;42.706;18.344;2023-11-19T10:45:31;5.30;;;3.55;;
58414;SDS011;44210;42.706;18.344;2023-11-19T10:47:59;3.80;;;2.58;;
58414;SDS011;44210;42.706;18.344;2023-11-19T10:50:25;4.82;;;2.17;;
58414;SDS011;44210;42.706;18.344;2023-11-19T10:53:00;2.42;;;1.40;;
58414;SDS011;44210;42.706;18.344;2023-11-19T10:55:27;1.92;;;1.40;;
58414;SDS011;44210;42.706;18.344;2023-11-19T10:57:58;2.78;;;1.73;;
58414;SDS011;44210;42.706;18.344;2023-11-19T11:00:25;2.72;;;1.98;;
58414;SDS011;44210;42.706;18.344;2023-11-19T11:02:54;1.67;;;1.00;;
58414;SDS011;44210;42.706;18.344;2023-11-19T11:05:21;1.98;;;1.40;;
58414;SDS011;44210;42.706;18.344;2023-11-19T11:07:47;2.88;;;1.50;;
58414;SDS011;44210;42.706;18.344;2023-11-19T11:10:16;1.52;;;1.42;;
58414;SDS011;44210;42.706;18.344;2023-11-19T11:12:42;0.80;;;0.80;;
58414;SDS011;44210;42.706;18.344;2023-11-19T11:15:10;1.40;;;0.93;;
58414;SDS011;44210;42.706;18.344;2023-11-19T11:17:38;1.77;;;1.00;;
58414;SDS011;44210;42.706;18.344;2023-11-19T11:20:05;1.92;;;1.20;;
58414;SDS011;44210;42.706;18.344;2023-11-19T11:22:33;3.60;;;1.38;;
58414;SDS011;44210;42.706;18.344;2023-11-19T11:30:13;1.77;;;1.13;;
58414;SDS011;44210;42.706;18.344;2023-11-19T11:38:06;2.25;;;1.10;;
58414;SDS011;44210;42.706;18.344;2023-11-19T11:40:32;1.83;;;1.00;;
58414;SDS011;44210;42.706;18.344;2023-11-19T11:42:58;1.77;;;1.02;;
58414;SDS011;44210;42.706;18.344;2023-11-19T11:45:37;1.75;;;1.27;;
58414;SDS011;44210;42.706;18.344;2023-11-19T11:50:33;7.63;;;1.17;;
58414;SDS011;44210;42.706;18.344;2023-11-19T11:58:18;4.20;;;1.20;;
58414;SDS011;44210;42.706;18.344;2023-11-19T12:00:44;1.88;;;1.30;;
58414;SDS011;44210;42.706;18.344;2023-11-19T12:03:12;1.35;;;1.10;;
58414;SDS011;44210;42.706;18.344;2023-11-19T12:05:42;3.22;;;1.10;;
58414;SDS011;44210;42.706;18.344;2023-11-19T12:08:09;1.58;;;1.17;;
58414;SDS011;44210;42.706;18.344;2023-11-19T12:10:46;2.13;;;1.35;;
58414;SDS011;44210;42.706;18.344;2023-11-19T12:13:13;1.52;;;1.25;;
58414;SDS011;44210;42.706;18.344;2023-11-19T12:20:50;2.58;;;1.17;;
58414;SDS011;44210;42.706;18.344;2023-11-19T12:23:17;1.65;;;1.30;;
58414;SDS011;44210;42.706;18.344;2023-11-19T12:25:44;2.08;;;1.30;;
58414;SDS011;44210;42.706;18.344;2023-11-19T12:28:14;2.58;;;1.58;;
58414;SDS011;44210;42.706;18.344;2023-11-19T12:30:42;9.18;;;3.75;;
58414;SDS011;44210;42.706;18.344;2023-11-19T12:33:09;4.32;;;2.95;;
58414;SDS011;44210;42.706;18.344;2023-11-19T12:35:42;2.33;;;1.40;;
58414;SDS011;44210;42.706;18.344;2023-11-19T12:38:18;2.28;;;1.70;;
58414;SDS011;44210;42.706;18.344;2023-11-19T12:40:46;4.15;;;1.70;;
58414;SDS011;44210;42.706;18.344;2023-11-19T12:43:20;2.25;;;1.33;;
58414;SDS011;44210;42.706;18.344;2023-11-19T12:45:47;1.25;;;1.15;;
58414;SDS011;44210;42.706;18.344;2023-11-19T12:48:13;1.77;;;1.45;;
58414;SDS011;44210;42.706;18.344;2023-11-19T12:53:18;1.35;;;1.20;;
58414;SDS011;44210;42.706;18.344;2023-11-19T12:55:44;1.48;;;1.30;;
58414;SDS011;44210;42.706;18.344;2023-11-19T12:58:10;1.98;;;1.60;;
58414;SDS011;44210;42.706;18.344;2023-11-19T13:00:36;3.15;;;1.60;;
58414;SDS011;44210;42.706;18.344;2023-11-19T13:03:03;1.92;;;1.35;;
58414;SDS011;44210;42.706;18.344;2023-11-19T13:10:27;2.95;;;1.58;;
58414;SDS011;44210;42.706;18.344;2023-11-19T13:12:59;6.88;;;2.85;;
58414;SDS011;44210;42.706;18.344;2023-11-19T13:15:26;3.90;;;1.65;;
58414;SDS011;44210;42.706;18.344;2023-11-19T13:17:52;6.00;;;1.60;;
58414;SDS011;44210;42.706;18.344;2023-11-19T13:20:18;3.50;;;1.63;;
58414;SDS011;44210;42.706;18.344;2023-11-19T13:25:26;32.15;;;11.43;;
58414;SDS011;44210;42.706;18.344;2023-11-19T13:27:53;63.33;;;27.73;;
58414;SDS011;44210;42.706;18.344;2023-11-19T13:30:19;55.70;;;22.75;;
58414;SDS011;44210;42.706;18.344;2023-11-19T13:32:45;9.40;;;3.50;;
58414;SDS011;44210;42.706;18.344;2023-11-19T13:35:12;6.25;;;3.08;;
58414;SDS011;44210;42.706;18.344;2023-11-19T13:37:40;3.38;;;2.25;;
58414;SDS011;44210;42.706;18.344;2023-11-19T13:40:07;4.15;;;2.05;;
58414;SDS011;44210;42.706;18.344;2023-11-19T13:42:35;6.40;;;3.58;;
58414;SDS011;44210;42.706;18.344;2023-11-19T13:45:02;5.05;;;2.47;;
58414;SDS011;44210;42.706;18.344;2023-11-19T13:47:28;4.10;;;2.25;;
58414;SDS011;44210;42.706;18.344;2023-11-19T13:49:54;2.33;;;1.23;;
58414;SDS011;44210;42.706;18.344;2023-11-19T13:52:20;1.98;;;1.30;;
58414;SDS011;44210;42.706;18.344;2023-11-19T13:54:46;1.65;;;1.10;;
58414;SDS011;44210;42.706;18.344;2023-11-19T13:57:12;3.83;;;1.80;;
58414;SDS011;44210;42.706;18.344;2023-11-19T13:59:39;4.10;;;2.28;;
58414;SDS011;44210;42.706;18.344;2023-11-19T14:02:06;4.00;;;1.98;;
58414;SDS011;44210;42.706;18.344;2023-11-19T14:04:33;4.28;;;1.48;;
58414;SDS011;44210;42.706;18.344;2023-11-19T14:06:59;11.98;;;5.75;;
58414;SDS011;44210;42.706;18.344;2023-11-19T14:09:25;28.50;;;5.47;;
58414;SDS011;44210;42.706;18.344;2023-11-19T14:11:51;10.23;;;4.03;;
58414;SDS011;44210;42.706;18.344;2023-11-19T14:14:17;4.63;;;1.65;;
58414;SDS011;44210;42.706;18.344;2023-11-19T14:16:44;13.90;;;4.00;;
58414;SDS011;44210;42.706;18.344;2023-11-19T14:19:11;3.75;;;1.20;;
58414;SDS011;44210;42.706;18.344;2023-11-19T14:21:37;1.48;;;1.10;;
58414;SDS011;44210;42.706;18.344;2023-11-19T14:24:03;1.98;;;1.30;;
58414;SDS011;44210;42.706;18.344;2023-11-19T14:26:29;1.73;;;1.10;;
58414;SDS011;44210;42.706;18.344;2023-11-19T14:28:55;2.42;;;0.88;;
58414;SDS011;44210;42.706;18.344;2023-11-19T14:31:21;2.15;;;1.30;;
58414;SDS011;44210;42.706;18.344;2023-11-19T14:33:47;2.13;;;1.15;;
58414;SDS011;44210;42.706;18.344;2023-11-19T14:36:14;3.78;;;1.88;;
58414;SDS011;44210;42.706;18.344;2023-11-19T14:38:40;1.35;;;1.00;;
58414;SDS011;44210;42.706;18.344;2023-11-19T14:41:06;1.17;;;0.80;;
58414;SDS011;44210;42.706;18.344;2023-11-19T14:43:33;5.05;;;1.95;;
58414;SDS011;44210;42.706;18.344;2023-11-19T14:45:59;2.25;;;1.17;;
58414;SDS011;44210;42.706;18.344;2023-11-19T14:48:25;2.10;;;1.75;;
58414;SDS011;44210;42.706;18.344;2023-11-19T14:50:52;8.82;;;2.22;;
58414;SDS011;44210;42.706;18.344;2023-11-19T14:53:18;2.92;;;1.83;;
58414;SDS011;44210;42.706;18.344;2023-11-19T14:55:45;3.17;;;1.92;;
58414;SDS011;44210;42.706;18.344;2023-11-19T14:58:11;4.32;;;1.85;;
58414;SDS011;44210;42.706;18.344;2023-11-19T15:00:38;4.00;;;1.75;;
58414;SDS011;44210;42.706;18.344;2023-11-19T15:03:04;2.35;;;1.35;;
58414;SDS011;44210;42.706;18.344;2023-11-19T15:05:31;22.35;;;7.70;;
58414;SDS011;44210;42.706;18.344;2023-11-19T15:07:57;7.97;;;4.00;;